Time;durP1;ratioP1;P1;durP2;ratioP2;P2;SDS_P1;SDS_P2;PMS_P1;PMS_P2;Temp;Humidity;BMP_temperature;BMP_pressure;BME280_temperature;BME280_humidity;BME280_pressure;Samples;Min_cycle;Max_cycle;Signal;HPM_P1;HPM_P2
2022/02/26 00:00:41;;;;;;;30.40;3.30;;;2.60;99.90;;;;;;6184124;23;20020;-79
2022/02/26 00:03:07;;;;;;;23.85;3.30;;;2.60;99.90;;;;;;6182850;23;20510;-80
2022/02/26 00:05:33;;;;;;;31.95;3.78;;;2.60;99.90;;;;;;6182866;23;20012;-79
2022/02/26 00:07:58;;;;;;;33.15;4.07;;;2.70;99.90;;;;;;6183885;23;20013;-79
2022/02/26 00:10:25;;;;;;;32.58;3.67;;;2.60;99.90;;;;;;6184126;23;20012;-79
2022/02/26 00:12:52;;;;;;;34.13;4.43;;;2.60;99.90;;;;;;6156746;23;20063;-80
2022/02/26 00:15:19;;;;;;;45.15;4.47;;;2.50;99.90;;;;;;6182979;23;20092;-79
2022/02/26 00:17:46;;;;;;;27.60;4.35;;;2.50;99.90;;;;;;6159179;23;20013;-79
2022/02/26 00:20:12;;;;;;;24.48;3.70;;;2.40;99.90;;;;;;6184694;23;20520;-79
2022/02/26 00:22:37;;;;;;;23.60;3.47;;;2.50;99.90;;;;;;6158432;23;20047;-79
2022/02/26 00:25:04;;;;;;;36.42;4.45;;;2.40;99.90;;;;;;6182392;23;20008;-79
2022/02/26 00:27:29;;;;;;;37.63;4.30;;;2.40;99.90;;;;;;6159377;23;20487;-79
2022/02/26 00:29:55;;;;;;;30.70;3.97;;;2.40;99.90;;;;;;6181990;23;20044;-80
2022/02/26 00:32:21;;;;;;;32.40;3.92;;;2.40;99.90;;;;;;6159211;23;20016;-79
2022/02/26 00:34:47;;;;;;;33.63;4.15;;;2.40;99.90;;;;;;6184515;23;20012;-79
2022/02/26 00:37:14;;;;;;;31.55;3.83;;;2.30;99.90;;;;;;6183073;23;20083;-79
2022/02/26 00:39:39;;;;;;;28.88;3.50;;;2.40;99.90;;;;;;6183782;23;20101;-78
2022/02/26 00:42:05;;;;;;;32.20;4.30;;;2.30;99.90;;;;;;6206689;23;20350;-78
2022/02/26 00:44:31;;;;;;;27.42;3.78;;;2.40;99.90;;;;;;6181594;23;20020;-79
2022/02/26 00:46:56;;;;;;;24.40;3.10;;;2.30;99.90;;;;;;6183086;23;20009;-79
2022/02/26 00:52:06;;;;;;;25.90;3.45;;;2.10;99.90;;;;;;6209300;23;20031;-78
2022/02/26 00:54:32;;;;;;;29.42;3.28;;;2.20;99.90;;;;;;6182249;23;20016;-78
2022/02/26 00:56:58;;;;;;;22.08;4.18;;;2.10;99.90;;;;;;6182465;23;20828;-78
2022/02/26 00:59:23;;;;;;;28.63;3.63;;;2.10;99.90;;;;;;6158332;23;20024;-79
2022/02/26 01:01:49;;;;;;;31.52;3.33;;;2.10;99.90;;;;;;6183720;23;20025;-79
2022/02/26 01:04:15;;;;;;;17.77;2.97;;;2.00;99.90;;;;;;6158629;23;20091;-78
2022/02/26 01:06:40;;;;;;;20.80;2.85;;;2.10;99.90;;;;;;6158748;23;20067;-79
2022/02/26 01:09:06;;;;;;;28.63;3.95;;;2.10;99.90;;;;;;6183849;23;20596;-79
2022/02/26 01:11:32;;;;;;;26.17;2.92;;;2.10;99.90;;;;;;6213157;23;20052;-78
2022/02/26 01:13:58;;;;;;;26.27;3.35;;;2.20;99.90;;;;;;6184048;23;20100;-80
2022/02/26 01:16:24;;;;;;;24.45;2.90;;;2.20;99.90;;;;;;6161613;23;20064;-79
2022/02/26 01:18:51;;;;;;;30.10;3.53;;;2.10;99.90;;;;;;6185900;23;20344;-80
2022/02/26 01:21:20;;;;;;;32.42;3.90;;;2.20;99.90;;;;;;6185641;23;20020;-80
2022/02/26 01:23:48;;;;;;;30.45;3.60;;;2.20;99.90;;;;;;6163147;23;20016;-80
2022/02/26 01:26:17;;;;;;;29.08;4.03;;;2.20;99.90;;;;;;6160958;23;20096;-80
2022/02/26 01:28:43;;;;;;;34.35;3.63;;;2.20;99.90;;;;;;6184568;23;20096;-80
2022/02/26 01:31:09;;;;;;;29.35;3.85;;;2.10;99.90;;;;;;6186969;23;20013;-80
2022/02/26 01:33:35;;;;;;;33.53;3.38;;;2.20;99.90;;;;;;6186517;23;20082;-81
2022/02/26 01:36:00;;;;;;;26.25;3.65;;;2.10;99.90;;;;;;6185439;23;20043;-79
2022/02/26 01:38:26;;;;;;;34.28;3.85;;;2.10;99.90;;;;;;6208457;23;20080;-80
2022/02/26 01:40:52;;;;;;;24.05;3.83;;;2.10;99.90;;;;;;6160278;23;20020;-79
2022/02/26 01:43:18;;;;;;;27.85;4.00;;;2.00;99.90;;;;;;6161243;23;20062;-80
2022/02/26 01:45:43;;;;;;;31.70;3.25;;;2.00;99.90;;;;;;6186551;23;20017;-80
2022/02/26 01:48:09;;;;;;;30.00;3.47;;;1.90;99.90;;;;;;6185026;23;20090;-80
2022/02/26 01:50:35;;;;;;;23.88;3.60;;;1.90;99.90;;;;;;6185376;23;20510;-80
2022/02/26 01:53:04;;;;;;;31.63;2.92;;;1.80;99.90;;;;;;6159488;23;20032;-80
2022/02/26 01:55:30;;;;;;;27.95;3.45;;;1.90;99.90;;;;;;6173540;23;20047;-80
2022/02/26 01:57:56;;;;;;;27.30;3.50;;;1.90;99.90;;;;;;6184650;23;20029;-80
2022/02/26 02:00:21;;;;;;;20.10;2.97;;;1.80;99.90;;;;;;6182928;23;20017;-80
2022/02/26 02:02:48;;;;;;;23.95;3.33;;;1.70;99.90;;;;;;6184937;23;20016;-80
2022/02/26 02:05:14;;;;;;;26.90;3.83;;;1.60;99.90;;;;;;6159459;23;20459;-80
2022/02/26 02:07:40;;;;;;;26.25;3.22;;;1.50;99.90;;;;;;6159119;23;20008;-80
2022/02/26 02:10:08;;;;;;;24.05;3.40;;;1.40;99.90;;;;;;6183913;23;20328;-80
2022/02/26 02:12:34;;;;;;;21.73;2.78;;;1.30;99.90;;;;;;6159593;23;20012;-80
2022/02/26 02:15:00;;;;;;;20.52;3.03;;;1.20;99.90;;;;;;6183241;23;20032;-80
2022/02/26 02:17:26;;;;;;;24.83;3.05;;;1.20;99.90;;;;;;6184595;23;20119;-80
2022/02/26 02:19:52;;;;;;;25.33;3.25;;;1.20;99.90;;;;;;6185166;23;20503;-80
2022/02/26 02:22:21;;;;;;;25.17;3.08;;;1.10;99.90;;;;;;6161549;23;20013;-80
2022/02/26 02:24:48;;;;;;;18.85;2.67;;;1.00;99.90;;;;;;6184391;23;20375;-80
2022/02/26 02:27:16;;;;;;;20.85;2.85;;;0.90;99.90;;;;;;6185489;23;20008;-80
2022/02/26 02:29:42;;;;;;;19.98;2.67;;;0.90;99.90;;;;;;6182576;23;20321;-80
2022/02/26 02:32:08;;;;;;;30.60;3.13;;;0.90;99.90;;;;;;6212659;23;20025;-80
2022/02/26 02:34:34;;;;;;;27.17;3.10;;;0.80;99.90;;;;;;6185095;23;20032;-80
2022/02/26 02:37:00;;;;;;;20.92;2.83;;;0.70;99.90;;;;;;6160239;23;20017;-80
2022/02/26 02:39:26;;;;;;;27.52;4.00;;;0.70;99.90;;;;;;6158503;23;20023;-80
2022/02/26 02:41:52;;;;;;;37.33;4.10;;;0.70;99.90;;;;;;6183440;23;20055;-81
2022/02/26 02:44:18;;;;;;;22.02;3.63;;;0.70;99.90;;;;;;6158958;23;20027;-80
2022/02/26 02:46:45;;;;;;;23.83;2.60;;;0.70;99.90;;;;;;6184996;23;20109;-80
2022/02/26 02:49:11;;;;;;;20.80;3.03;;;0.70;99.90;;;;;;6186027;23;20013;-80
2022/02/26 02:51:38;;;;;;;25.25;3.28;;;0.80;99.90;;;;;;6159731;23;20013;-80
2022/02/26 02:54:05;;;;;;;22.80;3.40;;;0.60;99.90;;;;;;6184791;23;20016;-80
2022/02/26 02:56:31;;;;;;;29.63;3.42;;;0.60;99.90;;;;;;6158628;23;20020;-80
2022/02/26 02:58:57;;;;;;;22.42;3.30;;;0.60;99.90;;;;;;6159041;23;20117;-80
2022/02/26 03:01:23;;;;;;;24.85;3.40;;;0.60;99.90;;;;;;6185140;23;20182;-80
2022/02/26 03:03:48;;;;;;;29.50;3.55;;;0.50;99.90;;;;;;6157498;23;20494;-81
2022/02/26 03:06:14;;;;;;;24.02;3.28;;;0.50;99.90;;;;;;6184331;23;20421;-80
2022/02/26 03:08:40;;;;;;;29.70;3.42;;;0.50;99.90;;;;;;6161617;23;20040;-80
2022/02/26 03:11:06;;;;;;;26.83;3.53;;;0.50;99.90;;;;;;6160373;23;20091;-80
2022/02/26 03:13:33;;;;;;;24.92;3.33;;;0.70;99.90;;;;;;6184762;23;20023;-80
2022/02/26 03:15:59;;;;;;;19.58;3.33;;;0.40;99.90;;;;;;6159435;23;20532;-80
2022/02/26 03:18:25;;;;;;;23.95;3.70;;;0.30;99.90;;;;;;6160081;23;20044;-80
2022/02/26 03:20:52;;;;;;;17.45;2.72;;;0.60;99.90;;;;;;6185486;23;20024;-80
2022/02/26 03:23:18;;;;;;;17.67;3.22;;;0.30;99.90;;;;;;6183886;23;20724;-80
2022/02/26 03:25:44;;;;;;;26.05;3.22;;;0.20;99.90;;;;;;6184503;23;20079;-80
2022/02/26 03:28:11;;;;;;;31.48;4.15;;;0.20;99.90;;;;;;6184374;23;20365;-80
2022/02/26 03:30:37;;;;;;;28.58;4.13;;;0.20;99.90;;;;;;6185562;23;20021;-81
2022/02/26 03:33:03;;;;;;;27.05;3.83;;;0.20;99.90;;;;;;6186022;23;20403;-80
2022/02/26 03:35:29;;;;;;;22.50;3.75;;;0.10;99.90;;;;;;6159347;23;20044;-80
2022/02/26 03:37:54;;;;;;;21.92;3.65;;;0.10;99.90;;;;;;6160295;23;20116;-81
2022/02/26 03:40:21;;;;;;;29.77;4.18;;;0.00;99.90;;;;;;6186722;23;20091;-81
2022/02/26 03:42:48;;;;;;;28.27;3.40;;;0.00;99.90;;;;;;6184388;23;20067;-80
2022/02/26 03:45:14;;;;;;;20.17;3.40;;;0.00;99.90;;;;;;6162386;23;20091;-80
2022/02/26 03:47:43;;;;;;;25.77;3.30;;;0.00;99.90;;;;;;6215037;23;20015;-80
2022/02/26 03:50:10;;;;;;;27.50;4.10;;;0.00;99.90;;;;;;6161022;23;20012;-80
2022/02/26 03:52:35;;;;;;;34.60;3.60;;;0.00;99.90;;;;;;6186910;23;20012;-80
2022/02/26 03:55:02;;;;;;;35.33;4.20;;;0.20;99.90;;;;;;6161612;23;20024;-80
2022/02/26 03:57:32;;;;;;;30.25;4.22;;;0.20;99.90;;;;;;6138020;23;20012;-80
2022/02/26 03:59:58;;;;;;;32.70;4.35;;;0.40;99.90;;;;;;6211952;23;20420;-80
2022/02/26 04:02:24;;;;;;;23.38;3.38;;;0.40;99.90;;;;;;6187550;23;20009;-80
2022/02/26 04:04:51;;;;;;;26.35;4.05;;;0.50;99.90;;;;;;6187705;23;20051;-80
2022/02/26 04:07:16;;;;;;;23.77;3.65;;;0.40;99.90;;;;;;6186130;23;20079;-80
2022/02/26 04:09:42;;;;;;;33.17;4.25;;;0.40;99.90;;;;;;6185857;23;20036;-81
2022/02/26 04:12:09;;;;;;;20.95;2.88;;;0.50;99.90;;;;;;6185797;23;20013;-80
2022/02/26 04:14:35;;;;;;;28.90;4.25;;;0.30;99.90;;;;;;6186094;23;20020;-80
2022/02/26 04:17:00;;;;;;;28.95;3.72;;;0.30;99.90;;;;;;6186485;23;20012;-80
2022/02/26 04:19:26;;;;;;;21.55;3.50;;;0.80;99.90;;;;;;6186966;23;20099;-80
2022/02/26 04:21:52;;;;;;;26.30;3.67;;;0.30;99.90;;;;;;6161092;23;20024;-80
2022/02/26 04:24:20;;;;;;;27.73;3.15;;;0.30;99.90;;;;;;6187141;23;20069;-80
2022/02/26 04:26:46;;;;;;;19.92;3.60;;;0.10;99.90;;;;;;6162272;23;20071;-80
2022/02/26 04:29:12;;;;;;;27.50;3.53;;;0.10;99.90;;;;;;6162194;23;20012;-80
2022/02/26 04:31:38;;;;;;;27.42;3.97;;;0.00;99.90;;;;;;6162043;23;20075;-80
2022/02/26 04:34:04;;;;;;;23.80;3.85;;;0.00;99.90;;;;;;6184507;23;20028;-80
2022/02/26 04:36:30;;;;;;;24.42;3.78;;;-0.20;99.90;;;;;;6162400;23;20013;-80
2022/02/26 04:38:56;;;;;;;23.90;3.80;;;-0.20;99.90;;;;;;6185680;23;20095;-80
2022/02/26 04:41:21;;;;;;;16.05;2.78;;;-0.20;99.90;;;;;;6186809;23;20016;-80
2022/02/26 04:43:47;;;;;;;22.45;3.00;;;-0.30;99.90;;;;;;6184026;23;20015;-80
2022/02/26 04:46:13;;;;;;;25.38;3.22;;;-0.30;99.90;;;;;;6185938;23;20031;-79
2022/02/26 04:48:39;;;;;;;25.92;3.35;;;-0.30;99.90;;;;;;6186452;23;20421;-80
2022/02/26 04:51:08;;;;;;;21.77;3.65;;;-0.40;99.90;;;;;;6186452;23;20012;-80
2022/02/26 04:53:35;;;;;;;20.73;3.05;;;-0.40;99.90;;;;;;6185022;23;20019;-80
2022/02/26 04:56:01;;;;;;;26.65;3.28;;;-0.40;99.90;;;;;;6186051;23;20017;-80
2022/02/26 04:58:27;;;;;;;25.90;4.10;;;-0.50;99.90;;;;;;6213249;23;20433;-80
2022/02/26 05:00:53;;;;;;;17.65;2.88;;;-0.40;99.90;;;;;;6161235;23;20056;-80
2022/02/26 05:03:19;;;;;;;22.33;3.38;;;-0.60;99.90;;;;;;6184848;23;20317;-80
2022/02/26 05:05:45;;;;;;;25.52;3.70;;;-0.60;99.90;;;;;;6159335;23;20031;-80
2022/02/26 05:08:10;;;;;;;21.20;3.08;;;-0.70;99.90;;;;;;6185393;23;20017;-80
2022/02/26 05:10:37;;;;;;;19.60;2.80;;;-0.50;99.90;;;;;;6160314;23;20075;-80
2022/02/26 05:13:03;;;;;;;23.95;3.58;;;-0.50;99.90;;;;;;6158354;23;20467;-80
2022/02/26 05:15:29;;;;;;;21.75;3.28;;;0.00;99.90;;;;;;6199586;23;20023;-80
2022/02/26 05:17:55;;;;;;;27.85;4.28;;;-0.60;99.90;;;;;;6186052;23;20009;-80
2022/02/26 05:20:22;;;;;;;18.10;2.63;;;-0.70;99.90;;;;;;6185442;23;20021;-80
2022/02/26 05:22:48;;;;;;;18.77;2.83;;;-0.60;99.90;;;;;;6161066;23;20013;-80
2022/02/26 05:25:13;;;;;;;21.60;3.33;;;-0.80;99.90;;;;;;6185781;23;20259;-80
2022/02/26 05:27:40;;;;;;;21.48;2.97;;;-0.70;99.90;;;;;;6189211;23;20019;-80
2022/02/26 05:30:11;;;;;;;20.15;3.40;;;-0.70;99.90;;;;;;6160488;23;20333;-80
2022/02/26 05:32:37;;;;;;;24.05;3.30;;;-0.70;99.90;;;;;;6161594;23;20036;-80
2022/02/26 05:35:04;;;;;;;25.35;3.95;;;-0.80;99.90;;;;;;6160698;23;20009;-80
2022/02/26 05:37:30;;;;;;;21.58;3.25;;;-0.80;99.90;;;;;;6186663;23;20019;-80
2022/02/26 05:39:56;;;;;;;14.05;2.70;;;-0.90;99.90;;;;;;6187034;23;20008;-80
2022/02/26 05:42:21;;;;;;;20.77;3.80;;;-0.90;99.90;;;;;;6161979;23;20008;-80
2022/02/26 05:44:47;;;;;;;21.13;3.33;;;-0.80;99.90;;;;;;6185794;23;20039;-80
2022/02/26 05:47:13;;;;;;;23.52;3.63;;;-0.90;99.90;;;;;;6188772;23;20456;-79
2022/02/26 05:49:39;;;;;;;22.65;2.97;;;-0.90;99.90;;;;;;6161535;23;20020;-80
2022/02/26 05:52:05;;;;;;;28.55;3.55;;;-0.90;99.90;;;;;;6158661;23;20212;-80
2022/02/26 05:54:31;;;;;;;19.60;3.67;;;-0.90;99.90;;;;;;6161840;23;20012;-80
2022/02/26 05:56:57;;;;;;;23.00;3.78;;;-0.90;99.90;;;;;;6161323;23;20092;-80
2022/02/26 05:59:23;;;;;;;18.98;3.60;;;-0.90;99.90;;;;;;6183369;23;20046;-80
2022/02/26 06:01:49;;;;;;;23.60;3.53;;;-1.00;99.90;;;;;;6184461;23;20035;-80
2022/02/26 06:04:14;;;;;;;25.15;3.53;;;-0.90;99.90;;;;;;6160997;23;20092;-80
2022/02/26 06:06:40;;;;;;;28.45;3.45;;;-0.90;99.90;;;;;;6185041;23;20309;-80
2022/02/26 06:09:06;;;;;;;23.73;3.75;;;-0.90;99.90;;;;;;6185618;23;20020;-80
2022/02/26 06:11:31;;;;;;;21.33;3.15;;;-0.80;99.90;;;;;;6186355;23;20012;-80
2022/02/26 06:13:57;;;;;;;27.13;3.60;;;-1.00;99.90;;;;;;6184534;23;20008;-80
2022/02/26 06:16:23;;;;;;;17.17;2.83;;;-1.10;99.90;;;;;;6162238;23;20162;-82
2022/02/26 06:18:48;;;;;;;16.95;3.28;;;0.00;99.90;;;;;;6184997;23;20016;-78
2022/02/26 06:21:14;;;;;;;17.83;3.40;;;-1.10;99.90;;;;;;6160819;23;20023;-81
2022/02/26 06:23:40;;;;;;;20.42;3.60;;;-0.60;99.90;;;;;;6160903;23;20017;-80
2022/02/26 06:26:06;;;;;;;21.40;3.25;;;-0.70;99.90;;;;;;6156324;23;20021;-81
2022/02/26 06:28:31;;;;;;;21.67;2.97;;;0.20;99.90;;;;;;6160790;23;20012;-81
2022/02/26 06:30:57;;;;;;;23.15;3.83;;;-0.90;99.90;;;;;;6214111;23;20321;-81
2022/02/26 06:33:23;;;;;;;20.95;3.42;;;-0.90;99.90;;;;;;6160066;23;20043;-81
2022/02/26 06:35:49;;;;;;;18.40;3.45;;;-1.00;99.90;;;;;;6212638;23;20491;-81
2022/02/26 06:38:14;;;;;;;23.77;3.83;;;-0.90;99.90;;;;;;6185561;23;20048;-82
2022/02/26 06:40:40;;;;;;;20.17;3.22;;;-1.00;99.90;;;;;;6185156;23;20021;-81
2022/02/26 06:43:07;;;;;;;23.83;3.47;;;-1.00;99.90;;;;;;6184739;23;20036;-81
2022/02/26 06:45:33;;;;;;;20.88;2.80;;;-1.10;99.90;;;;;;6212373;23;20031;-81
2022/02/26 06:47:58;;;;;;;22.30;3.63;;;-1.10;99.90;;;;;;6160227;23;20020;-80
2022/02/26 06:50:24;;;;;;;18.90;3.13;;;-0.90;99.90;;;;;;6161300;23;20066;-81
2022/02/26 06:52:50;;;;;;;25.50;3.20;;;-0.90;99.90;;;;;;6159577;23;20055;-81
2022/02/26 06:55:16;;;;;;;30.20;3.42;;;-0.90;99.90;;;;;;6161069;23;20914;-81
2022/02/26 06:57:43;;;;;;;21.02;3.05;;;0.30;99.90;;;;;;6211346;23;20309;-81
2022/02/26 07:00:13;;;;;;;21.02;3.30;;;0.30;99.90;;;;;;6160201;23;20020;-81
2022/02/26 07:02:39;;;;;;;27.50;3.33;;;-0.80;99.90;;;;;;6212430;23;20528;-80
2022/02/26 07:05:05;;;;;;;27.52;3.70;;;0.50;99.90;;;;;;6206506;23;20044;-80
2022/02/26 07:07:31;;;;;;;22.73;2.92;;;-0.70;99.90;;;;;;6186251;23;20024;-80
2022/02/26 07:09:56;;;;;;;18.85;3.50;;;-0.60;99.90;;;;;;6186120;23;20009;-80
2022/02/26 07:12:22;;;;;;;22.90;3.55;;;-0.50;99.90;;;;;;6160952;23;20023;-80
2022/02/26 07:14:48;;;;;;;17.20;2.55;;;-0.60;99.90;;;;;;6185954;23;20043;-80
2022/02/26 07:17:15;;;;;;;27.08;3.33;;;-0.40;99.90;;;;;;6162078;23;20112;-80
2022/02/26 07:19:41;;;;;;;22.40;2.95;;;-0.40;99.90;;;;;;6186270;23;20110;-80
2022/02/26 07:22:07;;;;;;;17.67;3.08;;;-0.40;99.90;;;;;;6136901;23;20409;-80
2022/02/26 07:24:33;;;;;;;27.42;3.33;;;-0.30;99.90;;;;;;6187235;23;20013;-80
2022/02/26 07:26:58;;;;;;;19.58;3.17;;;-0.20;99.90;;;;;;6213976;23;20107;-80
2022/02/26 07:29:24;;;;;;;33.97;3.20;;;-0.10;99.90;;;;;;6212819;23;20413;-79
2022/02/26 07:31:49;;;;;;;23.75;3.28;;;-0.20;99.90;;;;;;6187059;23;20024;-79
2022/02/26 07:34:15;;;;;;;30.08;3.63;;;0.00;99.90;;;;;;6187112;23;20023;-79
2022/02/26 07:36:41;;;;;;;24.13;3.70;;;0.10;99.90;;;;;;6187112;23;20016;-79
2022/02/26 07:39:08;;;;;;;32.97;4.07;;;1.00;99.90;;;;;;6162223;23;20433;-83
2022/02/26 07:41:35;;;;;;;28.83;3.60;;;0.30;99.90;;;;;;6162216;23;20051;-82
2022/02/26 07:44:01;;;;;;;41.08;5.28;;;0.50;99.90;;;;;;6160788;23;20088;-81
2022/02/26 07:46:27;;;;;;;29.70;4.05;;;0.60;99.90;;;;;;6213129;23;20051;-79
2022/02/26 07:48:52;;;;;;;25.85;4.40;;;0.70;99.90;;;;;;6185841;23;20115;-80
2022/02/26 07:51:18;;;;;;;34.10;4.18;;;0.90;99.90;;;;;;6161774;23;20099;-80
2022/02/26 07:53:45;;;;;;;28.35;3.83;;;0.90;99.90;;;;;;6161682;23;20413;-81
2022/02/26 07:56:14;;;;;;;25.58;3.60;;;1.00;99.90;;;;;;6160980;23;20021;-82
2022/02/26 07:58:40;;;;;;;33.88;5.13;;;1.00;99.90;;;;;;6160424;23;20025;-80
2022/02/26 08:01:06;;;;;;;22.77;4.20;;;1.10;99.90;;;;;;6161218;23;20028;-80
2022/02/26 08:03:31;;;;;;;28.83;3.92;;;1.10;99.90;;;;;;6185127;23;20013;-80
2022/02/26 08:05:57;;;;;;;27.90;4.15;;;1.20;99.90;;;;;;6185718;23;20318;-81
2022/02/26 08:08:23;;;;;;;23.08;3.63;;;1.20;99.90;;;;;;6185021;23;20028;-79
2022/02/26 08:10:49;;;;;;;34.35;4.07;;;1.40;99.90;;;;;;6160307;23;20135;-80
2022/02/26 08:13:15;;;;;;;30.23;4.20;;;1.40;99.90;;;;;;6159538;23;20087;-80
2022/02/26 08:15:42;;;;;;;24.90;4.22;;;1.50;99.90;;;;;;6185043;23;20048;-81
2022/02/26 08:18:08;;;;;;;37.90;4.35;;;1.60;99.90;;;;;;6161060;23;20074;-82
2022/02/26 08:20:34;;;;;;;32.85;5.15;;;1.70;99.90;;;;;;6160626;23;20016;-82
2022/02/26 08:23:00;;;;;;;25.90;4.63;;;1.90;99.90;;;;;;6161586;23;20725;-82
2022/02/26 08:25:26;;;;;;;29.92;4.40;;;1.90;99.90;;;;;;6212838;23;20321;-82
2022/02/26 08:27:52;;;;;;;24.05;4.30;;;2.20;99.90;;;;;;6184859;23;20016;-81
2022/02/26 08:30:19;;;;;;;27.08;4.40;;;2.20;99.90;;;;;;6187069;23;20051;-79
2022/02/26 08:32:45;;;;;;;29.80;4.55;;;2.40;99.90;;;;;;6203753;23;20299;-80
2022/02/26 08:35:13;;;;;;;39.58;5.25;;;3.10;99.90;;;;;;6188568;23;20023;-81
2022/02/26 08:37:40;;;;;;;27.98;3.85;;;2.60;99.90;;;;;;6138776;23;20318;-79
2022/02/26 08:40:08;;;;;;;32.38;3.97;;;4.00;99.90;;;;;;6163136;23;20019;-83
2022/02/26 08:42:34;;;;;;;24.90;3.35;;;3.50;99.90;;;;;;6162211;23;20212;-83
2022/02/26 08:45:02;;;;;;;37.15;3.92;;;3.40;99.90;;;;;;6185631;23;20057;-81
2022/02/26 08:47:30;;;;;;;29.35;4.25;;;3.50;99.90;;;;;;6186586;23;20008;-81
2022/02/26 08:50:00;;;;;;;38.13;4.65;;;4.30;99.90;;;;;;6203508;23;20100;-84
2022/02/26 08:52:26;;;;;;;35.88;4.93;;;4.00;99.90;;;;;;6161329;23;20024;-83
2022/02/26 08:54:52;;;;;;;36.17;5.05;;;3.00;99.90;;;;;;6161000;23;20200;-81
2022/02/26 08:57:18;;;;;;;28.33;4.63;;;3.40;99.90;;;;;;6185506;23;20021;-79
2022/02/26 08:59:44;;;;;;;35.42;4.32;;;3.50;99.90;;;;;;6160974;23;20027;-80
2022/02/26 09:02:11;;;;;;;28.05;3.92;;;3.40;99.90;;;;;;6186492;23;20013;-81
2022/02/26 09:04:38;;;;;;;37.67;4.53;;;4.00;99.90;;;;;;6161062;23;20019;-85
2022/02/26 09:07:04;;;;;;;26.15;3.90;;;3.50;99.90;;;;;;6160862;23;20016;-80
2022/02/26 09:09:30;;;;;;;37.38;4.43;;;3.50;99.90;;;;;;6185787;23;20016;-81
2022/02/26 09:11:56;;;;;;;38.40;4.35;;;4.30;99.90;;;;;;6187063;23;20463;-82
2022/02/26 09:14:22;;;;;;;36.60;4.32;;;3.90;99.90;;;;;;6212112;23;20008;-81
2022/02/26 09:16:48;;;;;;;30.50;4.20;;;4.20;99.90;;;;;;6185878;23;20480;-80
2022/02/26 09:19:13;;;;;;;38.38;4.47;;;4.30;99.90;;;;;;6188334;23;20019;-82
2022/02/26 09:21:39;;;;;;;36.15;4.80;;;4.00;99.90;;;;;;6214417;23;20464;-82
2022/02/26 09:24:06;;;;;;;32.72;4.63;;;3.70;99.90;;;;;;6161352;23;20060;-80
2022/02/26 09:26:32;;;;;;;37.58;4.72;;;3.70;99.90;;;;;;6162138;23;20444;-81
2022/02/26 09:28:58;;;;;;;32.42;3.92;;;3.80;99.90;;;;;;6162399;23;20070;-82
2022/02/26 09:31:24;;;;;;;25.02;4.13;;;4.00;99.90;;;;;;6211250;23;20047;-84
2022/02/26 09:33:50;;;;;;;30.58;5.15;;;4.90;99.90;;;;;;6186716;23;20417;-82
2022/02/26 09:36:15;;;;;;;34.45;5.15;;;4.00;99.90;;;;;;6187182;23;20024;-82
2022/02/26 09:38:42;;;;;;;33.80;4.75;;;5.00;99.90;;;;;;6188194;23;20020;-83
2022/02/26 09:41:09;;;;;;;26.00;3.65;;;4.30;99.90;;;;;;6209703;23;20092;-83
2022/02/26 09:43:36;;;;;;;39.78;5.32;;;4.40;99.90;;;;;;6206015;23;20008;-83
2022/02/26 09:46:03;;;;;;;31.52;4.78;;;5.00;99.90;;;;;;6194946;23;20055;-83
2022/02/26 09:48:30;;;;;;;37.58;4.15;;;4.40;99.90;;;;;;6186579;23;20014;-83
2022/02/26 09:50:59;;;;;;;32.63;4.28;;;4.70;99.90;;;;;;6188313;23;20021;-84
2022/02/26 09:53:25;;;;;;;29.33;4.13;;;4.70;99.90;;;;;;6188027;23;20012;-82
2022/02/26 09:55:51;;;;;;;33.72;4.38;;;5.60;99.90;;;;;;6187468;23;20019;-82
2022/02/26 09:58:17;;;;;;;40.28;4.95;;;5.50;99.90;;;;;;6203261;23;20017;-82
2022/02/26 10:00:44;;;;;;;36.75;4.40;;;5.10;99.90;;;;;;6183749;23;20025;-83
2022/02/26 10:03:29;;;;;;;23.77;4.22;;;5.50;99.90;;;;;;6157396;23;20013;-82
2022/02/26 10:06:32;;;;;;;34.65;4.50;;;5.80;99.90;;;;;;6156811;23;20017;-82
2022/02/26 10:09:00;;;;;;;28.52;3.20;;;5.40;99.90;;;;;;6157256;23;20543;-83
2022/02/26 10:11:37;;;;;;;44.40;3.92;;;6.00;99.90;;;;;;6162475;23;20017;-82
2022/02/26 10:14:12;;;;;;;36.92;3.95;;;5.60;99.90;;;;;;6159566;23;20021;-82
2022/02/26 10:16:55;;;;;;;29.05;3.53;;;5.80;99.90;;;;;;6157979;23;20056;-83
2022/02/26 10:19:27;;;;;;;27.38;3.83;;;5.80;99.90;;;;;;6184756;23;20013;-82
2022/02/26 10:21:57;;;;;;;31.15;3.58;;;6.40;99.90;;;;;;6183881;23;20087;-82
2022/02/26 10:24:23;;;;;;;30.63;3.20;;;6.70;99.90;;;;;;6131880;23;20315;-81
2022/02/26 10:26:54;;;;;;;26.05;3.05;;;6.70;99.90;;;;;;6183462;23;20013;-87
2022/02/26 10:29:24;;;;;;;30.70;4.32;;;6.20;99.90;;;;;;6156154;23;20071;-82
2022/02/26 10:32:02;;;;;;;21.75;3.30;;;6.30;99.90;;;;;;6131870;23;20021;-80
2022/02/26 10:34:32;;;;;;;29.33;3.78;;;6.40;99.90;;;;;;6132320;23;20020;-81
2022/02/26 10:37:10;;;;;;;27.38;3.78;;;6.40;99.90;;;;;;6157523;23;20353;-80
2022/02/26 10:39:39;;;;;;;28.38;3.50;;;6.60;99.90;;;;;;6132624;23;20027;-83
2022/02/26 10:42:07;;;;;;;30.23;4.25;;;6.80;99.90;;;;;;6159771;23;20025;-86
2022/02/26 10:44:33;;;;;;;32.83;4.07;;;6.90;99.90;;;;;;6156077;23;20040;-82
2022/02/26 10:47:29;;;;;;;31.70;3.65;;;7.10;99.90;;;;;;6183164;23;20051;-83
2022/02/26 10:49:55;;;;;;;24.73;3.20;;;7.00;99.90;;;;;;6015332;23;20059;-86
2022/02/26 10:52:21;;;;;;;25.10;3.65;;;7.20;99.90;;;;;;6015079;23;20432;-80
2022/02/26 10:54:56;;;;;;;21.38;2.90;;;7.30;99.90;;;;;;6039193;23;20030;-82
2022/02/26 10:57:31;;;;;;;23.95;3.38;;;7.40;99.90;;;;;;6039374;23;20014;-86
2022/02/26 10:59:56;;;;;;;22.58;3.10;;;7.70;99.90;;;;;;6037722;23;20102;-86
2022/02/26 11:02:25;;;;;;;26.80;3.55;;;8.20;99.90;;;;;;6063374;23;20057;-80
2022/02/26 11:04:52;;;;;;;33.08;4.07;;;8.60;99.90;;;;;;6037328;23;20015;-84
2022/02/26 11:07:21;;;;;;;31.92;3.88;;;8.30;99.90;;;;;;6014797;23;20757;-85
2022/02/26 11:09:54;;;;;;;25.65;3.60;;;8.30;99.90;;;;;;6015161;23;20106;-84
2022/02/26 11:12:24;;;;;;;20.80;3.47;;;8.20;99.90;;;;;;6015274;23;20027;-84
2022/02/26 11:14:58;;;;;;;27.65;3.50;;;8.30;99.90;;;;;;6037643;23;20203;-83
2022/02/26 11:17:25;;;;;;;26.90;3.85;;;8.20;99.90;;;;;;6061918;23;20018;-83
2022/02/26 11:19:58;;;;;;;25.02;3.80;;;8.30;99.90;;;;;;6015174;23;20011;-83
2022/02/26 11:22:26;;;;;;;25.00;3.70;;;8.60;99.90;;;;;;6038891;23;20062;-84
2022/02/26 11:24:53;;;;;;;26.40;3.75;;;8.60;99.90;;;;;;6015486;23;20029;-83
2022/02/26 11:27:22;;;;;;;22.17;3.67;;;8.40;99.90;;;;;;6147581;23;20282;-83
2022/02/26 11:29:48;;;;;;;26.33;4.05;;;8.70;99.90;;;;;;6130932;23;20019;-84
2022/02/26 11:32:15;;;;;;;22.88;3.67;;;8.90;99.90;;;;;;6155832;23;20021;-84
2022/02/26 11:34:42;;;;;;;28.38;3.50;;;9.00;99.90;;;;;;6156195;23;20028;-83
2022/02/26 11:37:13;;;;;;;24.13;3.42;;;9.00;99.90;;;;;;6155670;23;20017;-83
2022/02/26 11:39:40;;;;;;;26.23;3.80;;;9.30;99.90;;;;;;6182351;23;20187;-82
2022/02/26 11:42:24;;;;;;;21.45;3.40;;;9.30;99.90;;;;;;6132096;23;20048;-84
2022/02/26 11:45:01;;;;;;;21.38;3.53;;;9.40;99.90;;;;;;6155902;23;20044;-83
2022/02/26 11:47:55;;;;;;;23.52;3.15;;;9.50;99.90;;;;;;6183409;23;20013;-83
2022/02/26 11:50:34;;;;;;;23.38;3.20;;;9.70;99.90;;;;;;6157243;23;20619;-83
2022/02/26 11:53:17;;;;;;;28.60;3.80;;;9.60;99.90;;;;;;6156885;23;20017;-83
2022/02/26 11:55:49;;;;;;;25.35;3.40;;;9.30;99.90;;;;;;6132459;23;20013;-83
2022/02/26 11:58:20;;;;;;;23.30;3.60;;;9.50;99.90;;;;;;6165540;23;20063;-83
2022/02/26 12:01:06;;;;;;;17.98;3.40;;;9.60;99.90;;;;;;6187670;23;20122;-83
2022/02/26 12:03:41;;;;;;;20.73;3.25;;;9.80;99.90;;;;;;6188649;23;20012;-83
2022/02/26 12:06:12;;;;;;;18.73;3.47;;;9.90;99.90;;;;;;6188296;23;20012;-82
2022/02/26 12:08:39;;;;;;;20.27;3.28;;;10.60;99.90;;;;;;6162561;23;20012;-83
2022/02/26 12:11:12;;;;;;;18.77;3.08;;;9.70;99.90;;;;;;6187883;23;20044;-83
2022/02/26 12:13:46;;;;;;;19.13;3.53;;;9.60;99.90;;;;;;6162978;23;20564;-83
2022/02/26 12:16:21;;;;;;;25.00;3.63;;;9.80;99.90;;;;;;6208881;23;20100;-81
2022/02/26 12:18:58;;;;;;;23.13;3.28;;;10.30;99.90;;;;;;6163128;23;20270;-85
2022/02/26 12:21:31;;;;;;;17.52;3.60;;;10.00;99.90;;;;;;6214289;23;20021;-84
2022/02/26 12:24:22;;;;;;;15.05;3.08;;;10.20;99.90;;;;;;6162562;23;20116;-83
2022/02/26 12:26:57;;;;;;;17.20;3.22;;;10.40;99.90;;;;;;6163374;23;20044;-83
2022/02/26 12:32:47;;;;;;;18.40;3.42;;;10.70;99.90;;;;;;6041389;23;20030;-83
2022/02/26 12:35:12;;;;;;;19.67;3.75;;;11.10;99.90;;;;;;6039589;23;20022;-83
2022/02/26 12:37:41;;;;;;;17.98;3.40;;;11.00;99.90;;;;;;6038763;23;20030;-82
2022/02/26 12:40:09;;;;;;;21.48;3.20;;;10.70;99.90;;;;;;6039361;23;20087;-80
2022/02/26 12:42:42;;;;;;;16.88;2.92;;;10.70;99.90;;;;;;6039985;23;20397;-81
2022/02/26 12:45:11;;;;;;;15.13;2.83;;;11.00;99.90;;;;;;6039374;23;20317;-80
2022/02/26 12:47:40;;;;;;;17.20;3.30;;;11.00;99.90;;;;;;6043138;23;20029;-82
2022/02/26 12:50:09;;;;;;;17.05;3.30;;;11.40;99.90;;;;;;6040055;23;20117;-84